sensor_id;sensor_type;location;lat;lon;timestamp;pressure;altitude;pressure_sealevel;temperature;humidity
76128;BME280;64873;50.102;14.434;2024-03-22T00:01:44;99864.09;;;8.19;75.86
76128;BME280;64873;50.102;14.434;2024-03-22T00:04:10;99864.06;;;8.34;75.35
76128;BME280;64873;50.102;14.434;2024-03-22T00:06:35;99864.91;;;8.19;75.55
76128;BME280;64873;50.102;14.434;2024-03-22T00:09:01;99866.00;;;8.25;76.01
76128;BME280;64873;50.102;14.434;2024-03-22T00:11:26;99838.56;;;8.24;75.35
76128;BME280;64873;50.102;14.434;2024-03-22T00:13:52;99856.56;;;8.22;76.28
76128;BME280;64873;50.102;14.434;2024-03-22T00:16:17;99854.56;;;8.10;76.11
76128;BME280;64873;50.102;14.434;2024-03-22T00:18:42;99848.59;;;8.22;76.02
76128;BME280;64873;50.102;14.434;2024-03-22T00:21:08;99857.09;;;8.33;75.10
76128;BME280;64873;50.102;14.434;2024-03-22T00:23:33;99844.97;;;8.45;74.89
76128;BME280;64873;50.102;14.434;2024-03-22T00:25:59;99839.38;;;8.40;75.16
76128;BME280;64873;50.102;14.434;2024-03-22T00:28:25;99843.28;;;8.44;74.95
76128;BME280;64873;50.102;14.434;2024-03-22T00:30:50;99833.94;;;8.48;74.97
76128;BME280;64873;50.102;14.434;2024-03-22T00:33:15;99834.75;;;8.48;75.10
76128;BME280;64873;50.102;14.434;2024-03-22T00:35:41;99842.53;;;8.50;74.93
76128;BME280;64873;50.102;14.434;2024-03-22T00:38:06;99840.19;;;8.25;75.83
76128;BME280;64873;50.102;14.434;2024-03-22T00:40:31;99826.19;;;8.53;75.33
76128;BME280;64873;50.102;14.434;2024-03-22T00:42:58;99834.31;;;8.45;75.06
76128;BME280;64873;50.102;14.434;2024-03-22T00:45:23;99835.31;;;8.44;75.44
76128;BME280;64873;50.102;14.434;2024-03-22T00:47:48;99834.75;;;8.48;74.91
76128;BME280;64873;50.102;14.434;2024-03-22T00:50:14;99835.91;;;8.39;75.49
76128;BME280;64873;50.102;14.434;2024-03-22T00:52:39;99817.16;;;8.33;75.45
76128;BME280;64873;50.102;14.434;2024-03-22T00:55:05;99831.53;;;8.53;75.47
76128;BME280;64873;50.102;14.434;2024-03-22T00:57:30;99827.47;;;8.57;75.12
76128;BME280;64873;50.102;14.434;2024-03-22T00:59:56;99833.94;;;8.69;74.57
76128;BME280;64873;50.102;14.434;2024-03-22T01:02:21;99811.03;;;8.75;74.68
76128;BME280;64873;50.102;14.434;2024-03-22T01:04:48;99804.63;;;8.69;74.74
76128;BME280;64873;50.102;14.434;2024-03-22T01:07:13;99812.59;;;8.91;74.49
76128;BME280;64873;50.102;14.434;2024-03-22T01:09:39;99793.81;;;8.99;72.69
76128;BME280;64873;50.102;14.434;2024-03-22T01:12:04;99811.16;;;9.16;72.60
76128;BME280;64873;50.102;14.434;2024-03-22T01:14:30;99802.81;;;8.98;72.90
76128;BME280;64873;50.102;14.434;2024-03-22T01:16:55;99821.34;;;9.06;72.87
76128;BME280;64873;50.102;14.434;2024-03-22T01:19:21;99811.09;;;8.81;73.55
76128;BME280;64873;50.102;14.434;2024-03-22T01:21:48;99817.75;;;8.92;73.39
76128;BME280;64873;50.102;14.434;2024-03-22T01:24:13;99822.72;;;9.02;72.98
76128;BME280;64873;50.102;14.434;2024-03-22T01:26:39;99825.69;;;8.86;73.31
76128;BME280;64873;50.102;14.434;2024-03-22T01:29:04;99826.69;;;8.85;73.87
76128;BME280;64873;50.102;14.434;2024-03-22T01:31:29;99813.50;;;8.55;74.48
76128;BME280;64873;50.102;14.434;2024-03-22T01:33:55;99816.94;;;8.70;74.49
76128;BME280;64873;50.102;14.434;2024-03-22T01:36:20;99820.41;;;8.71;74.30
76128;BME280;64873;50.102;14.434;2024-03-22T01:38:45;99823.59;;;8.60;74.72
76128;BME280;64873;50.102;14.434;2024-03-22T01:41:11;99807.41;;;8.61;75.06
76128;BME280;64873;50.102;14.434;2024-03-22T01:43:36;99814.25;;;8.49;74.75
76128;BME280;64873;50.102;14.434;2024-03-22T01:46:02;99798.69;;;8.46;75.31
76128;BME280;64873;50.102;14.434;2024-03-22T01:48:27;99798.59;;;8.82;74.08
76128;BME280;64873;50.102;14.434;2024-03-22T01:50:53;99798.28;;;8.70;74.19
76128;BME280;64873;50.102;14.434;2024-03-22T01:53:18;99783.53;;;8.68;73.95
76128;BME280;64873;50.102;14.434;2024-03-22T01:55:44;99804.66;;;8.97;73.27
76128;BME280;64873;50.102;14.434;2024-03-22T01:58:10;99795.06;;;9.03;72.89
76128;BME280;64873;50.102;14.434;2024-03-22T02:00:37;99799.38;;;9.04;72.84
76128;BME280;64873;50.102;14.434;2024-03-22T02:03:03;99797.44;;;8.91;73.06
76128;BME280;64873;50.102;14.434;2024-03-22T02:05:28;99789.25;;;8.93;73.61
76128;BME280;64873;50.102;14.434;2024-03-22T02:07:54;99782.91;;;8.72;73.77
76128;BME280;64873;50.102;14.434;2024-03-22T02:10:19;99770.94;;;8.62;74.52
76128;BME280;64873;50.102;14.434;2024-03-22T02:12:45;99780.50;;;8.77;73.81
76128;BME280;64873;50.102;14.434;2024-03-22T02:15:11;99776.34;;;8.68;74.38
76128;BME280;64873;50.102;14.434;2024-03-22T02:17:36;99773.91;;;8.73;74.08
76128;BME280;64873;50.102;14.434;2024-03-22T02:20:02;99764.53;;;8.77;73.69
76128;BME280;64873;50.102;14.434;2024-03-22T02:22:29;99759.88;;;8.86;73.48
76128;BME280;64873;50.102;14.434;2024-03-22T02:24:54;99762.09;;;8.82;73.39
76128;BME280;64873;50.102;14.434;2024-03-22T02:27:20;99760.88;;;8.85;73.83
76128;BME280;64873;50.102;14.434;2024-03-22T02:29:46;99758.50;;;8.97;73.69
76128;BME280;64873;50.102;14.434;2024-03-22T02:32:11;99742.44;;;8.84;73.77
76128;BME280;64873;50.102;14.434;2024-03-22T02:34:37;99742.47;;;8.90;73.66
76128;BME280;64873;50.102;14.434;2024-03-22T02:37:03;99732.78;;;8.82;73.56
76128;BME280;64873;50.102;14.434;2024-03-22T02:39:28;99721.50;;;8.80;73.84
76128;BME280;64873;50.102;14.434;2024-03-22T02:41:54;99719.94;;;8.93;73.36
76128;BME280;64873;50.102;14.434;2024-03-22T02:44:20;99718.53;;;8.97;73.58
76128;BME280;64873;50.102;14.434;2024-03-22T02:46:45;99710.16;;;9.00;73.36
76128;BME280;64873;50.102;14.434;2024-03-22T02:49:11;99719.53;;;8.96;73.43
76128;BME280;64873;50.102;14.434;2024-03-22T02:51:36;99715.53;;;9.06;73.66
76128;BME280;64873;50.102;14.434;2024-03-22T02:54:01;99705.59;;;8.94;73.48
76128;BME280;64873;50.102;14.434;2024-03-22T02:56:27;99709.72;;;8.96;73.86
76128;BME280;64873;50.102;14.434;2024-03-22T02:58:53;99703.56;;;8.96;73.87
76128;BME280;64873;50.102;14.434;2024-03-22T03:01:18;99707.84;;;8.97;74.17
76128;BME280;64873;50.102;14.434;2024-03-22T03:03:44;99705.59;;;8.94;74.29
76128;BME280;64873;50.102;14.434;2024-03-22T03:06:09;99700.09;;;9.02;73.67
76128;BME280;64873;50.102;14.434;2024-03-22T03:08:38;99684.53;;;8.71;74.48
76128;BME280;64873;50.102;14.434;2024-03-22T03:11:03;99702.84;;;8.80;74.61
76128;BME280;64873;50.102;14.434;2024-03-22T03:13:29;99688.72;;;8.80;74.53
76128;BME280;64873;50.102;14.434;2024-03-22T03:15:54;99689.22;;;8.62;75.39
76128;BME280;64873;50.102;14.434;2024-03-22T03:18:19;99692.03;;;8.61;75.58
76128;BME280;64873;50.102;14.434;2024-03-22T03:20:45;99687.44;;;8.76;75.05
76128;BME280;64873;50.102;14.434;2024-03-22T03:23:10;99677.28;;;8.58;75.54
76128;BME280;64873;50.102;14.434;2024-03-22T03:25:36;99661.06;;;8.53;75.75
76128;BME280;64873;50.102;14.434;2024-03-22T03:28:01;99672.53;;;8.53;76.03
76128;BME280;64873;50.102;14.434;2024-03-22T03:30:26;99671.19;;;8.64;75.65
76128;BME280;64873;50.102;14.434;2024-03-22T03:32:52;99668.09;;;8.67;75.76
76128;BME280;64873;50.102;14.434;2024-03-22T03:35:17;99668.78;;;8.48;76.10
76128;BME280;64873;50.102;14.434;2024-03-22T03:37:42;99658.09;;;8.41;76.31
76128;BME280;64873;50.102;14.434;2024-03-22T03:40:08;99678.19;;;8.44;76.86
76128;BME280;64873;50.102;14.434;2024-03-22T03:42:33;99655.22;;;8.43;76.52
76128;BME280;64873;50.102;14.434;2024-03-22T03:44:59;99659.31;;;8.39;76.88
76128;BME280;64873;50.102;14.434;2024-03-22T03:47:24;99660.31;;;8.38;77.12
76128;BME280;64873;50.102;14.434;2024-03-22T03:49:50;99666.09;;;8.41;76.87
76128;BME280;64873;50.102;14.434;2024-03-22T03:52:15;99667.53;;;8.44;76.45
76128;BME280;64873;50.102;14.434;2024-03-22T03:54:40;99667.53;;;8.44;77.08
76128;BME280;64873;50.102;14.434;2024-03-22T03:57:06;99673.50;;;8.46;76.98
76128;BME280;64873;50.102;14.434;2024-03-22T03:59:31;99669.63;;;8.48;76.72
76128;BME280;64873;50.102;14.434;2024-03-22T04:01:56;99669.19;;;8.45;77.10
76128;BME280;64873;50.102;14.434;2024-03-22T04:04:22;99662.31;;;8.57;76.68
76128;BME280;64873;50.102;14.434;2024-03-22T04:06:47;99660.91;;;8.61;76.79
76128;BME280;64873;50.102;14.434;2024-03-22T04:09:13;99659.41;;;8.52;76.86
76128;BME280;64873;50.102;14.434;2024-03-22T04:11:38;99658.09;;;8.41;77.36
76128;BME280;64873;50.102;14.434;2024-03-22T04:14:04;99657.19;;;8.34;77.38
76128;BME280;64873;50.102;14.434;2024-03-22T04:16:31;99656.25;;;8.42;77.20
76128;BME280;64873;50.102;14.434;2024-03-22T04:18:56;99659.41;;;8.31;77.92
76128;BME280;64873;50.102;14.434;2024-03-22T04:21:24;99653.84;;;8.25;78.10
76128;BME280;64873;50.102;14.434;2024-03-22T04:23:50;99662.28;;;8.29;77.74
76128;BME280;64873;50.102;14.434;2024-03-22T04:26:15;99660.31;;;8.38;77.63
76128;BME280;64873;50.102;14.434;2024-03-22T04:28:41;99659.69;;;8.36;78.06
76128;BME280;64873;50.102;14.434;2024-03-22T04:31:08;99650.31;;;8.40;77.72
76128;BME280;64873;50.102;14.434;2024-03-22T04:33:34;99658.72;;;8.22;78.11
76128;BME280;64873;50.102;14.434;2024-03-22T04:36:00;99650.50;;;8.17;78.50
76128;BME280;64873;50.102;14.434;2024-03-22T04:38:27;99643.84;;;8.06;78.72
76128;BME280;64873;50.102;14.434;2024-03-22T04:40:53;99651.69;;;8.14;78.35
76128;BME280;64873;50.102;14.434;2024-03-22T04:43:20;99646.88;;;8.03;78.67
76128;BME280;64873;50.102;14.434;2024-03-22T04:45:47;99664.63;;;8.17;78.37
76128;BME280;64873;50.102;14.434;2024-03-22T04:48:15;99665.66;;;8.16;78.44
76128;BME280;64873;50.102;14.434;2024-03-22T04:50:40;99661.72;;;8.12;78.43
76128;BME280;64873;50.102;14.434;2024-03-22T04:53:06;99640.94;;;8.01;78.22
76128;BME280;64873;50.102;14.434;2024-03-22T04:55:32;99650.91;;;8.20;78.46
76128;BME280;64873;50.102;14.434;2024-03-22T04:58:01;99659.06;;;8.12;77.86
76128;BME280;64873;50.102;14.434;2024-03-22T05:00:27;99649.03;;;8.14;77.88
76128;BME280;64873;50.102;14.434;2024-03-22T05:02:53;99659.06;;;8.12;77.48
76128;BME280;64873;50.102;14.434;2024-03-22T05:05:18;99656.19;;;8.14;76.40
76128;BME280;64873;50.102;14.434;2024-03-22T05:07:44;99646.75;;;8.11;76.59
76128;BME280;64873;50.102;14.434;2024-03-22T05:10:10;99649.63;;;8.10;76.10
76128;BME280;64873;50.102;14.434;2024-03-22T05:12:36;99649.16;;;8.06;76.37
76128;BME280;64873;50.102;14.434;2024-03-22T05:15:03;99637.09;;;8.04;76.02
76128;BME280;64873;50.102;14.434;2024-03-22T05:17:29;99632.69;;;7.96;75.61
76128;BME280;64873;50.102;14.434;2024-03-22T05:19:57;99660.84;;;8.05;75.74
76128;BME280;64873;50.102;14.434;2024-03-22T05:22:22;99659.34;;;8.02;75.99
76128;BME280;64873;50.102;14.434;2024-03-22T05:24:47;99639.28;;;8.00;75.22
76128;BME280;64873;50.102;14.434;2024-03-22T05:27:13;99659.31;;;8.17;75.18
76128;BME280;64873;50.102;14.434;2024-03-22T05:29:38;99657.16;;;8.27;74.48
76128;BME280;64873;50.102;14.434;2024-03-22T05:32:04;99660.44;;;8.08;75.28
76128;BME280;64873;50.102;14.434;2024-03-22T05:34:29;99662.72;;;8.11;74.99
76128;BME280;64873;50.102;14.434;2024-03-22T05:36:55;99659.16;;;8.25;75.07
76128;BME280;64873;50.102;14.434;2024-03-22T05:39:20;99658.69;;;8.15;74.86
76128;BME280;64873;50.102;14.434;2024-03-22T05:41:46;99646.44;;;7.99;75.08
76128;BME280;64873;50.102;14.434;2024-03-22T05:44:11;99654.59;;;8.19;74.65
76128;BME280;64873;50.102;14.434;2024-03-22T05:46:37;99648.03;;;8.15;74.84
76128;BME280;64873;50.102;14.434;2024-03-22T05:49:02;99657.97;;;8.28;74.40
76128;BME280;64873;50.102;14.434;2024-03-22T05:51:28;99654.00;;;8.39;73.82
76128;BME280;64873;50.102;14.434;2024-03-22T05:53:55;99654.22;;;8.22;73.81
76128;BME280;64873;50.102;14.434;2024-03-22T05:56:21;99638.94;;;8.52;73.03
76128;BME280;64873;50.102;14.434;2024-03-22T05:58:47;99649.91;;;8.43;73.12
76128;BME280;64873;50.102;14.434;2024-03-22T06:01:12;99650.16;;;8.26;73.58
76128;BME280;64873;50.102;14.434;2024-03-22T06:03:37;99664.13;;;8.28;73.93
76128;BME280;64873;50.102;14.434;2024-03-22T06:06:03;99652.91;;;8.12;74.74
76128;BME280;64873;50.102;14.434;2024-03-22T06:08:29;99637.75;;;8.12;73.80
76128;BME280;64873;50.102;14.434;2024-03-22T06:10:57;99658.91;;;8.42;73.58
76128;BME280;64873;50.102;14.434;2024-03-22T06:13:22;99638.09;;;8.31;73.74
76128;BME280;64873;50.102;14.434;2024-03-22T06:15:48;99629.63;;;8.42;73.22
76128;BME280;64873;50.102;14.434;2024-03-22T06:18:14;99635.69;;;8.57;72.61
76128;BME280;64873;50.102;14.434;2024-03-22T06:20:40;99647.69;;;8.74;72.21
76128;BME280;64873;50.102;14.434;2024-03-22T06:23:05;99629.53;;;8.35;72.78
76128;BME280;64873;50.102;14.434;2024-03-22T06:25:31;99647.53;;;8.54;73.11
76128;BME280;64873;50.102;14.434;2024-03-22T06:27:56;99649.03;;;8.36;73.54
76128;BME280;64873;50.102;14.434;2024-03-22T06:30:21;99634.19;;;8.26;73.62
76128;BME280;64873;50.102;14.434;2024-03-22T06:32:47;99650.41;;;8.53;73.22
76128;BME280;64873;50.102;14.434;2024-03-22T06:35:12;99636.53;;;8.64;73.10
76128;BME280;64873;50.102;14.434;2024-03-22T06:37:40;99640.41;;;8.96;71.98
76128;BME280;64873;50.102;14.434;2024-03-22T06:40:06;99643.00;;;9.24;70.63
76128;BME280;64873;50.102;14.434;2024-03-22T06:42:32;99635.28;;;9.43;69.95
76128;BME280;64873;50.102;14.434;2024-03-22T06:44:57;99633.38;;;9.23;70.36
76128;BME280;64873;50.102;14.434;2024-03-22T06:47:23;99630.41;;;9.66;68.70
76128;BME280;64873;50.102;14.434;2024-03-22T06:49:48;99619.75;;;9.66;68.21
76128;BME280;64873;50.102;14.434;2024-03-22T06:52:14;99628.41;;;9.95;67.29
76128;BME280;64873;50.102;14.434;2024-03-22T06:54:40;99628.63;;;10.00;66.58
76128;BME280;64873;50.102;14.434;2024-03-22T06:57:06;99614.88;;;10.03;66.22
76128;BME280;64873;50.102;14.434;2024-03-22T06:59:32;99614.38;;;9.53;66.92
76128;BME280;64873;50.102;14.434;2024-03-22T07:01:57;99616.03;;;9.60;67.05
76128;BME280;64873;50.102;14.434;2024-03-22T07:04:22;99615.63;;;9.57;67.05
76128;BME280;64873;50.102;14.434;2024-03-22T07:06:48;99611.94;;;9.71;66.42
76128;BME280;64873;50.102;14.434;2024-03-22T07:09:13;99598.97;;;9.55;67.08
76128;BME280;64873;50.102;14.434;2024-03-22T07:11:39;99600.88;;;9.81;66.12
76128;BME280;64873;50.102;14.434;2024-03-22T07:14:04;99614.03;;;9.89;66.04
76128;BME280;64873;50.102;14.434;2024-03-22T07:16:30;99610.38;;;9.97;65.50
76128;BME280;64873;50.102;14.434;2024-03-22T07:18:55;99603.59;;;10.27;64.64
76128;BME280;64873;50.102;14.434;2024-03-22T07:21:21;99604.19;;;10.43;64.11
76128;BME280;64873;50.102;14.434;2024-03-22T07:23:46;99583.81;;;10.68;63.13
76128;BME280;64873;50.102;14.434;2024-03-22T07:26:12;99585.22;;;10.71;63.36
76128;BME280;64873;50.102;14.434;2024-03-22T07:28:37;99584.56;;;10.88;62.47
76128;BME280;64873;50.102;14.434;2024-03-22T07:31:02;99578.31;;;11.08;62.08
76128;BME280;64873;50.102;14.434;2024-03-22T07:33:28;99590.81;;;11.14;61.94
76128;BME280;64873;50.102;14.434;2024-03-22T07:35:53;99593.03;;;10.85;62.42
76128;BME280;64873;50.102;14.434;2024-03-22T07:38:20;99574.09;;;11.25;61.09
76128;BME280;64873;50.102;14.434;2024-03-22T07:40:45;99588.34;;;11.19;61.17
76128;BME280;64873;50.102;14.434;2024-03-22T07:43:11;99568.31;;;10.90;61.91
76128;BME280;64873;50.102;14.434;2024-03-22T07:45:38;99588.06;;;10.82;62.44
76128;BME280;64873;50.102;14.434;2024-03-22T07:48:04;99579.19;;;10.95;61.85
76128;BME280;64873;50.102;14.434;2024-03-22T07:50:29;99573.25;;;10.86;62.06
76128;BME280;64873;50.102;14.434;2024-03-22T07:52:55;99578.56;;;11.00;61.90
76128;BME280;64873;50.102;14.434;2024-03-22T07:55:21;99572.38;;;10.99;61.75
76128;BME280;64873;50.102;14.434;2024-03-22T07:57:47;99561.00;;;10.59;62.63
76128;BME280;64873;50.102;14.434;2024-03-22T08:00:12;99557.66;;;10.77;62.33
76128;BME280;64873;50.102;14.434;2024-03-22T08:02:38;99559.75;;;10.68;62.91
76128;BME280;64873;50.102;14.434;2024-03-22T08:05:03;99562.63;;;10.73;62.50
76128;BME280;64873;50.102;14.434;2024-03-22T08:07:29;99559.75;;;10.68;62.64
76128;BME280;64873;50.102;14.434;2024-03-22T08:09:54;99550.25;;;10.85;62.18
76128;BME280;64873;50.102;14.434;2024-03-22T08:12:21;99549.63;;;10.83;61.93
76128;BME280;64873;50.102;14.434;2024-03-22T08:14:47;99528.84;;;10.79;61.74
76128;BME280;64873;50.102;14.434;2024-03-22T08:17:12;99538.88;;;10.97;61.73
76128;BME280;64873;50.102;14.434;2024-03-22T08:19:37;99537.41;;;11.01;61.48
76128;BME280;64873;50.102;14.434;2024-03-22T08:22:03;99528.59;;;10.93;61.07
76128;BME280;64873;50.102;14.434;2024-03-22T08:24:29;99523.47;;;10.92;61.27
76128;BME280;64873;50.102;14.434;2024-03-22T08:26:54;99527.06;;;11.11;60.79
76128;BME280;64873;50.102;14.434;2024-03-22T08:29:21;99518.66;;;11.07;60.77
76128;BME280;64873;50.102;14.434;2024-03-22T08:31:46;99529.84;;;11.29;60.52
76128;BME280;64873;50.102;14.434;2024-03-22T08:34:12;99532.88;;;11.39;60.14
76128;BME280;64873;50.102;14.434;2024-03-22T08:36:37;99529.28;;;11.52;59.74
76128;BME280;64873;50.102;14.434;2024-03-22T08:39:03;99519.47;;;11.71;59.12
76128;BME280;64873;50.102;14.434;2024-03-22T08:41:30;99526.41;;;11.85;58.82
76128;BME280;64873;50.102;14.434;2024-03-22T08:43:56;99522.53;;;11.81;58.56
76128;BME280;64873;50.102;14.434;2024-03-22T08:46:22;99515.22;;;11.63;58.73
76128;BME280;64873;50.102;14.434;2024-03-22T08:48:50;99509.28;;;11.55;58.77
76128;BME280;64873;50.102;14.434;2024-03-22T08:51:15;99525.47;;;11.66;58.90
76128;BME280;64873;50.102;14.434;2024-03-22T08:53:40;99494.91;;;11.56;58.46
76128;BME280;64873;50.102;14.434;2024-03-22T08:56:06;99520.97;;;11.67;58.77
76128;BME280;64873;50.102;14.434;2024-03-22T08:58:31;99507.22;;;11.88;58.00
76128;BME280;64873;50.102;14.434;2024-03-22T09:00:57;99504.47;;;12.20;57.11
76128;BME280;64873;50.102;14.434;2024-03-22T09:03:22;99510.72;;;12.50;56.65
76128;BME280;64873;50.102;14.434;2024-03-22T09:05:47;99502.06;;;12.48;56.18
76128;BME280;64873;50.102;14.434;2024-03-22T09:08:17;99495.63;;;12.56;55.80
76128;BME280;64873;50.102;14.434;2024-03-22T09:10:42;99481.53;;;12.42;56.37
76128;BME280;64873;50.102;14.434;2024-03-22T09:13:07;99473.94;;;12.58;56.23
76128;BME280;64873;50.102;14.434;2024-03-22T09:15:35;99469.41;;;12.88;55.35
76128;BME280;64873;50.102;14.434;2024-03-22T09:18:00;99472.31;;;13.17;54.45
76128;BME280;64873;50.102;14.434;2024-03-22T09:20:26;99458.59;;;12.95;54.04
76128;BME280;64873;50.102;14.434;2024-03-22T09:22:52;99449.81;;;12.58;55.07
76128;BME280;64873;50.102;14.434;2024-03-22T09:25:17;99463.97;;;12.95;54.49
76128;BME280;64873;50.102;14.434;2024-03-22T09:27:43;99460.25;;;12.96;54.00
76128;BME280;64873;50.102;14.434;2024-03-22T09:30:09;99450.66;;;12.88;53.86
76128;BME280;64873;50.102;14.434;2024-03-22T09:32:35;99468.56;;;13.48;52.86
76128;BME280;64873;50.102;14.434;2024-03-22T09:35:00;99463.47;;;13.58;52.67
76128;BME280;64873;50.102;14.434;2024-03-22T09:37:26;99457.75;;;13.54;52.46
76128;BME280;64873;50.102;14.434;2024-03-22T09:39:51;99462.22;;;13.84;50.81
76128;BME280;64873;50.102;14.434;2024-03-22T09:42:17;99463.34;;;14.23;49.30
76128;BME280;64873;50.102;14.434;2024-03-22T09:44:50;99445.25;;;13.95;49.61
76128;BME280;64873;50.102;14.434;2024-03-22T09:47:18;99454.22;;;14.24;48.55
76128;BME280;64873;50.102;14.434;2024-03-22T09:49:46;99463.13;;;13.54;49.19
76128;BME280;64873;50.102;14.434;2024-03-22T09:52:14;99445.38;;;14.00;47.76
76128;BME280;64873;50.102;14.434;2024-03-22T09:54:43;99455.88;;;14.37;48.02
76128;BME280;64873;50.102;14.434;2024-03-22T09:57:13;99449.81;;;14.06;49.24
76128;BME280;64873;50.102;14.434;2024-03-22T09:59:39;99447.19;;;14.58;47.52
76128;BME280;64873;50.102;14.434;2024-03-22T10:02:09;99439.19;;;14.00;47.15
76128;BME280;64873;50.102;14.434;2024-03-22T10:04:35;99447.91;;;14.19;47.25
76128;BME280;64873;50.102;14.434;2024-03-22T10:07:02;99444.00;;;13.98;47.69
76128;BME280;64873;50.102;14.434;2024-03-22T10:09:29;99433.25;;;13.86;46.92
76128;BME280;64873;50.102;14.434;2024-03-22T10:11:55;99423.66;;;14.13;46.15
76128;BME280;64873;50.102;14.434;2024-03-22T10:14:21;99436.09;;;14.43;46.97
76128;BME280;64873;50.102;14.434;2024-03-22T10:16:47;99415.84;;;14.52;46.62
76128;BME280;64873;50.102;14.434;2024-03-22T10:19:12;99429.22;;;15.04;45.71
76128;BME280;64873;50.102;14.434;2024-03-22T10:21:37;99428.34;;;15.15;44.70
76128;BME280;64873;50.102;14.434;2024-03-22T10:24:03;99418.94;;;15.01;44.18
76128;BME280;64873;50.102;14.434;2024-03-22T10:26:29;99410.78;;;14.68;44.42
76128;BME280;64873;50.102;14.434;2024-03-22T10:28:54;99415.50;;;15.06;44.31
76128;BME280;64873;50.102;14.434;2024-03-22T10:31:20;99413.34;;;15.19;44.65
76128;BME280;64873;50.102;14.434;2024-03-22T10:33:46;99413.53;;;14.84;45.47
76128;BME280;64873;50.102;14.434;2024-03-22T10:36:12;99399.31;;;14.89;44.93
76128;BME280;64873;50.102;14.434;2024-03-22T10:38:39;99409.91;;;15.07;45.10
76128;BME280;64873;50.102;14.434;2024-03-22T10:41:05;99399.63;;;14.76;46.11
76128;BME280;64873;50.102;14.434;2024-03-22T10:43:31;99391.09;;;14.50;46.47
76128;BME280;64873;50.102;14.434;2024-03-22T10:46:01;99378.41;;;14.62;44.95
76128;BME280;64873;50.102;14.434;2024-03-22T10:48:29;99392.53;;;15.32;43.51
76128;BME280;64873;50.102;14.434;2024-03-22T10:51:00;99383.47;;;15.04;40.86
76128;BME280;64873;50.102;14.434;2024-03-22T10:53:27;99381.13;;;15.25;42.47
76128;BME280;64873;50.102;14.434;2024-03-22T10:55:55;99386.31;;;15.82;39.17
76128;BME280;64873;50.102;14.434;2024-03-22T10:58:23;99372.28;;;15.12;39.29
76128;BME280;64873;50.102;14.434;2024-03-22T11:00:52;99367.66;;;15.08;37.73
76128;BME280;64873;50.102;14.434;2024-03-22T11:03:21;99370.66;;;15.11;39.21
76128;BME280;64873;50.102;14.434;2024-03-22T11:05:50;99363.53;;;14.88;39.11
76128;BME280;64873;50.102;14.434;2024-03-22T11:08:25;99370.53;;;14.73;37.58
76128;BME280;64873;50.102;14.434;2024-03-22T11:10:51;99354.44;;;14.89;37.61
76128;BME280;64873;50.102;14.434;2024-03-22T11:13:17;99359.88;;;14.78;37.36
76128;BME280;64873;50.102;14.434;2024-03-22T11:15:43;99345.50;;;14.89;37.60
76128;BME280;64873;50.102;14.434;2024-03-22T11:18:09;99352.06;;;14.93;38.12
76128;BME280;64873;50.102;14.434;2024-03-22T11:20:37;99351.44;;;15.36;38.07
76128;BME280;64873;50.102;14.434;2024-03-22T11:23:06;99348.28;;;14.94;39.95
76128;BME280;64873;50.102;14.434;2024-03-22T11:25:32;99349.63;;;15.08;40.31
76128;BME280;64873;50.102;14.434;2024-03-22T11:27:59;99342.75;;;15.17;40.92
76128;BME280;64873;50.102;14.434;2024-03-22T11:30:26;99338.91;;;14.80;42.06
76128;BME280;64873;50.102;14.434;2024-03-22T11:32:53;99347.97;;;14.90;42.92
76128;BME280;64873;50.102;14.434;2024-03-22T11:35:19;99347.03;;;15.13;42.61
76128;BME280;64873;50.102;14.434;2024-03-22T11:37:44;99328.41;;;15.29;42.74
76128;BME280;64873;50.102;14.434;2024-03-22T11:40:10;99325.97;;;15.10;43.78
76128;BME280;64873;50.102;14.434;2024-03-22T11:42:41;99330.47;;;15.77;43.26
76128;BME280;64873;50.102;14.434;2024-03-22T11:45:11;99320.91;;;16.30;42.65
76128;BME280;64873;50.102;14.434;2024-03-22T11:47:37;99310.94;;;16.85;41.35
76128;BME280;64873;50.102;14.434;2024-03-22T11:50:03;99319.91;;;15.92;42.96
76128;BME280;64873;50.102;14.434;2024-03-22T11:52:29;99318.84;;;15.71;43.88
76128;BME280;64873;50.102;14.434;2024-03-22T11:54:55;99314.00;;;15.73;43.73
76128;BME280;64873;50.102;14.434;2024-03-22T11:57:21;99303.84;;;16.24;42.88
76128;BME280;64873;50.102;14.434;2024-03-22T11:59:46;99305.09;;;15.73;43.81
76128;BME280;64873;50.102;14.434;2024-03-22T12:02:12;99296.69;;;15.53;44.09
76128;BME280;64873;50.102;14.434;2024-03-22T12:04:42;99289.19;;;15.71;44.03
76128;BME280;64873;50.102;14.434;2024-03-22T12:07:13;99287.59;;;15.54;44.04
76128;BME280;64873;50.102;14.434;2024-03-22T12:09:40;99291.81;;;15.66;43.59
76128;BME280;64873;50.102;14.434;2024-03-22T12:12:08;99289.09;;;15.11;43.79
76128;BME280;64873;50.102;14.434;2024-03-22T12:14:34;99277.53;;;15.49;43.07
76128;BME280;64873;50.102;14.434;2024-03-22T12:17:01;99271.06;;;15.67;43.43
76128;BME280;64873;50.102;14.434;2024-03-22T12:19:27;99276.78;;;15.92;43.17
76128;BME280;64873;50.102;14.434;2024-03-22T12:21:52;99266.47;;;16.11;42.59
76128;BME280;64873;50.102;14.434;2024-03-22T12:24:18;99260.00;;;16.12;42.96
76128;BME280;64873;50.102;14.434;2024-03-22T12:26:43;99250.19;;;16.01;43.60
76128;BME280;64873;50.102;14.434;2024-03-22T12:29:09;99230.72;;;16.21;43.46
76128;BME280;64873;50.102;14.434;2024-03-22T12:31:37;99248.16;;;16.40;43.45
76128;BME280;64873;50.102;14.434;2024-03-22T12:34:03;99240.94;;;16.46;43.43
76128;BME280;64873;50.102;14.434;2024-03-22T12:36:28;99242.00;;;15.91;44.80
76128;BME280;64873;50.102;14.434;2024-03-22T12:38:53;99233.47;;;15.77;45.28
76128;BME280;64873;50.102;14.434;2024-03-22T12:41:19;99229.75;;;15.61;44.98
76128;BME280;64873;50.102;14.434;2024-03-22T12:43:44;99218.31;;;15.10;46.30
76128;BME280;64873;50.102;14.434;2024-03-22T12:46:10;99213.91;;;15.43;46.47
76128;BME280;64873;50.102;14.434;2024-03-22T12:48:35;99211.69;;;15.40;46.15